createdAt,value
2022-09-13T00:00:59.766Z,0.70
2022-09-13T00:02:01.656Z,0.80
2022-09-13T00:03:04.258Z,0.80
2022-09-13T00:04:05.943Z,1.02
2022-09-13T00:05:07.997Z,0.68
2022-09-13T00:06:19.026Z,1.05
2022-09-13T00:07:20.835Z,0.70
2022-09-13T00:08:22.549Z,0.80
2022-09-13T00:09:24.221Z,0.93
2022-09-13T00:10:26.443Z,0.85
2022-09-13T00:11:31.648Z,0.65
2022-09-13T00:12:33.346Z,0.82
2022-09-13T00:13:35.098Z,0.70
2022-09-13T00:14:36.880Z,1.02
2022-09-13T00:15:44.102Z,0.60
2022-09-13T00:16:45.827Z,0.90
2022-09-13T00:17:47.663Z,0.75
2022-09-13T00:18:49.595Z,1.00
2022-09-13T00:19:51.454Z,1.10
2022-09-13T00:21:03.407Z,0.93
2022-09-13T00:22:06.523Z,0.93
2022-09-13T00:23:08.453Z,0.75
2022-09-13T00:24:10.254Z,0.85
2022-09-13T00:25:12.026Z,1.20
2022-09-13T00:26:15.751Z,0.77
2022-09-13T00:27:17.494Z,1.10
2022-09-13T00:28:19.168Z,1.00
2022-09-13T00:29:20.846Z,0.90
2022-09-13T00:30:22.570Z,1.00
2022-09-13T00:31:27.549Z,0.70
2022-09-13T00:32:29.280Z,0.95
2022-09-13T00:33:31.319Z,0.90
2022-09-13T00:34:32.978Z,0.98
2022-09-13T00:35:35.727Z,0.70
2022-09-13T00:36:37.463Z,0.75
2022-09-13T00:37:39.394Z,0.88
2022-09-13T00:38:42.373Z,0.80
2022-09-13T00:39:47.952Z,1.02
2022-09-13T00:40:51.275Z,0.82
2022-09-13T00:41:54.085Z,0.90
2022-09-13T00:42:55.973Z,1.10
2022-09-13T00:44:02.349Z,0.60
2022-09-13T00:45:12.715Z,0.80
2022-09-13T00:46:37.099Z,0.70
2022-09-13T00:47:44.903Z,0.70
2022-09-13T00:48:47.590Z,0.80
2022-09-13T00:49:54.459Z,0.90
2022-09-13T00:50:56.509Z,0.90
2022-09-13T00:52:04.504Z,0.98
2022-09-13T00:53:14.121Z,0.77
2022-09-13T00:54:17.847Z,0.80
2022-09-13T00:55:35.286Z,0.82
2022-09-13T00:56:41.475Z,0.73
2022-09-13T00:57:44.143Z,0.70
2022-09-13T00:58:53.288Z,1.02
2022-09-13T01:00:13.520Z,1.00
2022-09-13T01:01:17.130Z,0.80
2022-09-13T01:02:19.267Z,1.17
2022-09-13T01:03:24.519Z,0.82
2022-09-13T01:04:28.935Z,0.82
2022-09-13T01:05:38.843Z,0.85
2022-09-13T01:06:42.388Z,0.70
2022-09-13T01:07:44.614Z,0.88
2022-09-13T01:08:50.921Z,0.73
2022-09-13T01:09:53.544Z,0.80
2022-09-13T01:11:00.131Z,0.90
2022-09-13T01:12:08.415Z,0.80
2022-09-13T01:13:16.818Z,0.88
2022-09-13T01:14:20.670Z,0.80
2022-09-13T01:15:22.915Z,0.75
2022-09-13T01:16:25.665Z,0.85
2022-09-13T01:17:29.288Z,0.90
2022-09-13T01:18:31.046Z,0.80
2022-09-13T01:19:32.859Z,1.00
2022-09-13T01:20:47.012Z,0.93
2022-09-13T01:22:19.338Z,0.77
2022-09-13T01:23:21.046Z,0.68
2022-09-13T01:24:37.558Z,1.10
2022-09-13T01:26:11.608Z,0.80
2022-09-13T01:27:50.161Z,0.75
2022-09-13T01:29:03.782Z,0.80
2022-09-13T01:30:06.991Z,0.98
2022-09-13T01:31:45.918Z,0.95
2022-09-13T01:32:59.893Z,0.80
2022-09-13T01:34:21.032Z,0.90
2022-09-13T01:35:41.867Z,1.00
2022-09-13T01:36:56.251Z,0.80
2022-09-13T01:38:13.438Z,0.93
2022-09-13T01:39:22.534Z,0.95
2022-09-13T01:40:51.743Z,1.02
2022-09-13T01:42:31.935Z,0.95
2022-09-13T01:43:51.550Z,1.10
2022-09-13T01:45:30.659Z,0.90
2022-09-13T01:46:55.064Z,0.90
2022-09-13T01:47:59.166Z,0.93
2022-09-13T01:49:15.898Z,0.90
2022-09-13T01:50:39.299Z,0.75
2022-09-13T01:51:54.186Z,0.90
2022-09-13T01:53:26.181Z,1.00
2022-09-13T01:54:33.809Z,1.10
2022-09-13T01:55:57.493Z,1.10
2022-09-13T01:57:20.206Z,0.90
2022-09-13T01:58:28.999Z,1.00
2022-09-13T01:59:59.267Z,0.93
2022-09-13T02:01:03.753Z,0.90
2022-09-13T02:02:19.369Z,0.80
2022-09-13T02:03:41.092Z,0.90
2022-09-13T02:04:50.272Z,0.85
2022-09-13T02:06:00.346Z,0.80
2022-09-13T02:07:09.099Z,1.10
2022-09-13T02:08:19.640Z,1.05
2022-09-13T02:09:25.182Z,1.00
2022-09-13T02:10:35.233Z,1.05
2022-09-13T02:11:41.087Z,1.08
2022-09-13T02:12:44.287Z,1.00
2022-09-13T02:13:59.916Z,0.98
2022-09-13T02:15:20.432Z,0.70
2022-09-13T02:16:36.007Z,0.80
2022-09-13T02:17:42.199Z,1.00
2022-09-13T02:18:52.985Z,0.70
2022-09-13T02:20:01.010Z,0.85
2022-09-13T02:21:11.270Z,1.00
2022-09-13T02:22:18.267Z,0.90
2022-09-13T02:23:26.726Z,0.93
2022-09-13T02:24:36.102Z,0.93
2022-09-13T02:25:39.862Z,0.95
2022-09-13T02:26:45.739Z,0.82
2022-09-13T02:27:52.234Z,0.85
2022-09-13T02:28:58.244Z,1.08
2022-09-13T02:30:12.884Z,1.05
2022-09-13T02:31:18.691Z,1.10
2022-09-13T02:32:30.428Z,0.90
2022-09-13T02:33:38.048Z,0.95
2022-09-13T02:34:46.305Z,1.15
2022-09-13T02:35:53.878Z,1.17
2022-09-13T02:36:56.971Z,0.90
2022-09-13T02:38:05.139Z,0.82
2022-09-13T02:39:14.318Z,0.90
2022-09-13T02:40:22.857Z,0.93
2022-09-13T02:41:35.716Z,0.90
2022-09-13T02:42:48.369Z,1.10
2022-09-13T02:43:58.038Z,0.93
2022-09-13T02:45:01.362Z,0.80
2022-09-13T02:47:05.678Z,1.00
2022-09-13T02:48:20.369Z,1.00
2022-09-13T02:50:27.177Z,0.88
2022-09-13T02:52:01.457Z,1.00
2022-09-13T02:53:23.355Z,1.10
2022-09-13T02:54:53.423Z,0.82
2022-09-13T02:56:30.463Z,1.13
2022-09-13T02:57:39.879Z,0.98
2022-09-13T02:59:16.840Z,1.15
2022-09-13T03:00:19.589Z,1.13
2022-09-13T03:01:21.814Z,1.10
2022-09-13T03:02:28.281Z,0.88
2022-09-13T03:03:30.130Z,1.20
2022-09-13T03:04:33.039Z,1.10
2022-09-13T03:05:34.878Z,1.20
2022-09-13T03:06:38.207Z,1.10
2022-09-13T03:07:40.054Z,1.05
2022-09-13T03:08:41.895Z,1.05
2022-09-13T03:09:55.867Z,0.90
2022-09-13T03:11:28.954Z,1.05
2022-09-13T03:12:39.287Z,1.00
2022-09-13T03:13:57.034Z,0.98
2022-09-13T03:15:15.807Z,0.98
2022-09-13T03:16:29.448Z,1.10
2022-09-13T03:17:53.375Z,1.27
2022-09-13T03:19:13.440Z,1.38
2022-09-13T03:20:44.130Z,1.10
2022-09-13T03:22:14.734Z,0.98
2022-09-13T03:23:36.266Z,1.25
2022-09-13T03:24:43.802Z,1.08
2022-09-13T03:25:48.535Z,1.00
2022-09-13T03:27:08.882Z,1.30
2022-09-13T03:28:18.034Z,1.38
2022-09-13T03:29:31.793Z,1.15
2022-09-13T03:30:37.163Z,1.35
2022-09-13T03:32:08.926Z,1.30
2022-09-13T03:33:38.172Z,1.20
2022-09-13T03:35:03.125Z,1.00
2022-09-13T03:36:33.676Z,1.50
2022-09-13T03:37:58.678Z,1.38
2022-09-13T03:39:33.035Z,1.20
2022-09-13T03:40:45.791Z,1.52
2022-09-13T03:41:52.719Z,1.10
2022-09-13T03:43:01.122Z,1.33
2022-09-13T03:44:06.303Z,1.15
2022-09-13T03:45:09.862Z,1.13
2022-09-13T03:46:17.615Z,1.13
2022-09-13T03:47:21.648Z,1.40
2022-09-13T03:48:24.153Z,1.23
2022-09-13T03:49:27.539Z,1.50
2022-09-13T03:50:29.978Z,1.20
2022-09-13T03:51:33.070Z,1.55
2022-09-13T03:52:36.127Z,1.30
2022-09-13T03:53:43.359Z,1.50
2022-09-13T03:54:45.299Z,1.45
2022-09-13T03:55:47.135Z,1.55
2022-09-13T03:57:07.837Z,1.52
2022-09-13T03:58:13.050Z,1.55
2022-09-13T03:59:15.029Z,1.30
2022-09-13T04:00:18.257Z,1.30
2022-09-13T04:01:22.179Z,1.67
2022-09-13T04:02:26.481Z,1.40
2022-09-13T04:03:28.240Z,1.42
2022-09-13T04:04:29.939Z,1.60
2022-09-13T04:05:31.635Z,1.50
2022-09-13T04:06:33.439Z,1.40
2022-09-13T04:07:35.200Z,1.30
2022-09-13T04:08:37.063Z,1.63
2022-09-13T04:09:39.866Z,1.70
2022-09-13T04:10:41.716Z,1.50
2022-09-13T04:11:43.831Z,1.50
2022-09-13T04:12:45.503Z,1.58
2022-09-13T04:13:47.325Z,1.50
2022-09-13T04:14:49.224Z,1.50
2022-09-13T04:15:51.145Z,1.70
2022-09-13T04:16:54.376Z,1.42
2022-09-13T04:17:56.113Z,1.50
2022-09-13T04:18:57.951Z,1.27
2022-09-13T04:19:59.792Z,1.55
2022-09-13T04:21:02.763Z,1.35
2022-09-13T04:22:04.878Z,1.98
2022-09-13T04:23:06.707Z,1.58
2022-09-13T04:24:08.359Z,1.70
2022-09-13T04:25:10.264Z,1.50
2022-09-13T04:26:11.988Z,1.55
2022-09-13T04:27:13.757Z,1.35
2022-09-13T04:28:16.988Z,1.63
2022-09-13T04:29:19.381Z,1.73
2022-09-13T04:30:22.236Z,1.50
2022-09-13T04:31:24.234Z,1.65
2022-09-13T04:32:26.022Z,1.65
2022-09-13T04:33:27.796Z,1.45
2022-09-13T04:34:30.037Z,1.40
2022-09-13T04:35:31.792Z,1.50
2022-09-13T04:36:33.715Z,1.40
2022-09-13T04:37:35.521Z,1.50
2022-09-13T04:38:37.724Z,1.40
2022-09-13T04:39:39.749Z,1.42
2022-09-13T04:40:41.440Z,1.70
2022-09-13T04:41:47.198Z,1.50
2022-09-13T04:42:48.993Z,1.65
2022-09-13T04:43:51.165Z,1.58
2022-09-13T04:44:52.867Z,1.80
2022-09-13T04:45:54.726Z,1.75
2022-09-13T04:46:56.498Z,1.23
2022-09-13T04:47:58.211Z,1.55
2022-09-13T04:49:00.194Z,1.67
2022-09-13T04:50:01.935Z,1.55
2022-09-13T04:51:04.852Z,1.70
2022-09-13T04:52:06.667Z,1.50
2022-09-13T04:53:08.411Z,1.50
2022-09-13T04:54:15.238Z,1.73
2022-09-13T04:55:17.534Z,1.42
2022-09-13T04:56:19.742Z,1.58
2022-09-13T04:57:21.585Z,1.20
2022-09-13T04:58:23.416Z,1.50
2022-09-13T04:59:25.130Z,1.45
2022-09-13T05:00:27.314Z,1.60
2022-09-13T05:01:30.173Z,1.75
2022-09-13T05:02:32.114Z,1.88
2022-09-13T05:03:34.966Z,1.92
2022-09-13T05:04:36.812Z,1.60
2022-09-13T05:05:38.551Z,1.75
2022-09-13T05:06:40.434Z,1.70
2022-09-13T05:07:42.157Z,1.38
2022-09-13T05:08:45.007Z,1.45
2022-09-13T05:09:46.914Z,1.88
2022-09-13T05:10:48.606Z,1.80
2022-09-13T05:11:50.530Z,1.70
2022-09-13T05:12:52.655Z,1.63
2022-09-13T05:13:58.989Z,1.90
2022-09-13T05:15:00.793Z,1.40
2022-09-13T05:16:05.369Z,1.67
2022-09-13T05:17:07.591Z,1.75
2022-09-13T05:18:09.261Z,1.70
2022-09-13T05:19:13.133Z,1.80
2022-09-13T05:20:14.951Z,1.77
2022-09-13T05:21:17.189Z,1.60
2022-09-13T05:22:19.031Z,1.70
2022-09-13T05:23:21.139Z,1.50
2022-09-13T05:24:22.815Z,1.67
2022-09-13T05:25:26.182Z,1.58
2022-09-13T05:26:31.435Z,1.50
2022-09-13T05:27:33.467Z,1.50
2022-09-13T05:28:36.672Z,1.60
2022-09-13T05:29:38.399Z,1.50
2022-09-13T05:30:42.329Z,1.40
2022-09-13T05:31:44.246Z,1.63
2022-09-13T05:32:45.947Z,1.70
2022-09-13T05:33:52.870Z,1.60
2022-09-13T05:34:54.715Z,1.60
2022-09-13T05:35:56.647Z,1.67
2022-09-13T05:37:01.134Z,1.63
2022-09-13T05:38:02.907Z,1.35
2022-09-13T05:39:29.065Z,1.65
2022-09-13T05:40:27.650Z,1.38
2022-09-13T05:41:29.463Z,1.60
2022-09-13T05:42:31.167Z,1.40
2022-09-13T05:43:35.727Z,1.55
2022-09-13T05:44:37.424Z,1.58
2022-09-13T05:45:39.643Z,1.60
2022-09-13T05:46:43.430Z,1.40
2022-09-13T05:47:45.592Z,1.27
2022-09-13T05:48:48.499Z,1.88
2022-09-13T05:50:09.363Z,1.42
2022-09-13T05:51:12.058Z,1.45
2022-09-13T05:52:13.751Z,1.70
2022-09-13T05:53:15.523Z,1.55
2022-09-13T05:54:17.446Z,1.38
2022-09-13T05:55:19.603Z,1.42
2022-09-13T05:56:23.882Z,1.67
2022-09-13T05:57:25.619Z,1.60
2022-09-13T05:58:27.535Z,1.40
2022-09-13T05:59:29.575Z,1.40
2022-09-13T06:00:32.543Z,1.52
2022-09-13T06:01:34.444Z,1.25
2022-09-13T06:02:36.386Z,1.60
2022-09-13T06:03:38.438Z,1.60
2022-09-13T06:04:40.115Z,1.50
2022-09-13T06:05:41.841Z,1.40
2022-09-13T06:06:43.578Z,1.50
2022-09-13T06:07:45.424Z,1.55
2022-09-13T06:08:47.272Z,1.58
2022-09-13T06:09:49.075Z,1.45
2022-09-13T06:10:55.655Z,1.40
2022-09-13T06:11:57.403Z,1.10
2022-09-13T06:12:59.083Z,1.45
2022-09-13T06:14:00.746Z,1.42
2022-09-13T06:15:02.622Z,1.45
2022-09-13T06:16:07.180Z,1.60
2022-09-13T06:17:08.947Z,1.17
2022-09-13T06:18:10.606Z,1.45
2022-09-13T06:19:12.318Z,1.77
2022-09-13T06:20:14.091Z,1.60
2022-09-13T06:21:24.777Z,1.30
2022-09-13T06:22:33.332Z,1.70
2022-09-13T06:23:35.782Z,1.60
2022-09-13T06:24:38.422Z,1.42
2022-09-13T06:25:40.180Z,1.42
2022-09-13T06:26:41.910Z,1.48
2022-09-13T06:27:43.711Z,1.40
2022-09-13T06:28:53.608Z,1.30
2022-09-13T06:29:55.491Z,1.30
2022-09-13T06:31:04.718Z,1.30
2022-09-13T06:32:06.539Z,1.33
2022-09-13T06:33:08.205Z,1.58
2022-09-13T06:34:14.307Z,1.30
2022-09-13T06:35:16.786Z,1.23
2022-09-13T06:36:19.943Z,1.17
2022-09-13T06:37:22.146Z,1.20
2022-09-13T06:38:24.122Z,1.20
2022-09-13T06:39:25.808Z,1.20
2022-09-13T06:40:27.660Z,1.20
2022-09-13T06:41:29.479Z,1.23
2022-09-13T06:42:34.806Z,1.30
2022-09-13T06:43:38.409Z,1.40
2022-09-13T06:44:40.126Z,1.60
2022-09-13T06:45:42.298Z,1.17
2022-09-13T06:46:44.145Z,1.20
2022-09-13T06:47:45.858Z,1.50
2022-09-13T06:48:48.821Z,1.30
2022-09-13T06:49:50.659Z,1.10
2022-09-13T06:50:52.273Z,1.20
2022-09-13T06:51:54.098Z,1.35
2022-09-13T06:52:57.378Z,1.30
2022-09-13T06:54:00.062Z,1.30
2022-09-13T06:55:01.762Z,1.50
2022-09-13T06:56:06.676Z,1.30
2022-09-13T06:57:08.454Z,1.30
2022-09-13T06:58:10.187Z,1.50
2022-09-13T06:59:12.007Z,1.33
2022-09-13T07:00:14.266Z,1.35
2022-09-13T07:01:30.986Z,1.50
2022-09-13T07:02:32.992Z,1.35
2022-09-13T07:03:34.649Z,1.40
2022-09-13T07:04:36.356Z,1.20
2022-09-13T07:05:38.094Z,1.48
2022-09-13T07:06:42.861Z,1.40
2022-09-13T07:07:44.682Z,1.33
2022-09-13T07:08:47.903Z,1.40
2022-09-13T07:09:49.566Z,1.17
2022-09-13T07:10:51.280Z,1.20
2022-09-13T07:11:55.179Z,1.30
2022-09-13T07:12:56.911Z,1.52
2022-09-13T07:13:59.233Z,1.00
2022-09-13T07:15:00.904Z,1.58
2022-09-13T07:16:10.808Z,1.60
2022-09-13T07:17:12.838Z,1.30
2022-09-13T07:18:14.524Z,1.02
2022-09-13T07:19:20.170Z,1.48
2022-09-13T07:20:23.733Z,1.20
2022-09-13T07:21:27.067Z,1.20
2022-09-13T07:22:28.791Z,1.30
2022-09-13T07:23:32.215Z,1.08
2022-09-13T07:24:34.014Z,1.58
2022-09-13T07:25:35.870Z,1.20
2022-09-13T07:26:38.523Z,1.30
2022-09-13T07:27:40.423Z,1.33
2022-09-13T07:28:45.909Z,1.33
2022-09-13T07:29:47.731Z,1.02
2022-09-13T07:30:49.456Z,1.52
2022-09-13T07:31:53.202Z,1.23
2022-09-13T07:32:54.882Z,1.40
2022-09-13T07:33:59.225Z,1.45
2022-09-13T07:35:00.992Z,1.30
2022-09-13T07:36:06.566Z,1.20
2022-09-13T07:37:08.383Z,1.17
2022-09-13T07:38:10.035Z,1.10
2022-09-13T07:39:15.097Z,1.30
2022-09-13T07:40:19.063Z,1.50
2022-09-13T07:41:22.870Z,1.27
2022-09-13T07:42:24.551Z,1.30
2022-09-13T07:43:27.063Z,1.17
2022-09-13T07:44:28.718Z,1.20
2022-09-13T07:45:30.506Z,1.30
2022-09-13T07:46:33.737Z,1.30
2022-09-13T07:47:35.446Z,0.93
2022-09-13T07:48:39.392Z,1.33
2022-09-13T07:49:41.102Z,1.33
2022-09-13T07:50:42.851Z,1.15
2022-09-13T07:51:44.774Z,1.50
2022-09-13T07:52:46.579Z,1.15
2022-09-13T07:53:54.913Z,1.30
2022-09-13T07:54:59.634Z,1.35
2022-09-13T07:56:07.015Z,1.45
2022-09-13T07:57:08.752Z,1.23
2022-09-13T07:58:10.464Z,1.55
2022-09-13T07:59:14.993Z,1.40
2022-09-13T08:00:17.127Z,1.10
2022-09-13T08:01:27.344Z,1.40
2022-09-13T08:02:29.669Z,1.40
2022-09-13T08:03:32.946Z,1.38
2022-09-13T08:04:36.436Z,1.58
2022-09-13T08:05:42.162Z,1.42
2022-09-13T08:06:44.764Z,1.33
2022-09-13T08:07:46.774Z,1.25
2022-09-13T08:08:48.821Z,0.95
2022-09-13T08:09:50.670Z,1.20
2022-09-13T08:10:52.571Z,1.40
2022-09-13T08:11:54.556Z,1.45
2022-09-13T08:12:56.267Z,1.33
2022-09-13T08:13:58.479Z,1.38
2022-09-13T08:15:00.385Z,1.38
2022-09-13T08:16:04.881Z,1.27
2022-09-13T08:17:06.938Z,1.33
2022-09-13T08:18:08.710Z,1.15
2022-09-13T08:19:13.767Z,1.40
2022-09-13T08:20:15.980Z,1.20
2022-09-13T08:21:18.063Z,1.27
2022-09-13T08:22:20.242Z,1.10
2022-09-13T08:23:22.050Z,1.40
2022-09-13T08:24:23.856Z,1.23
2022-09-13T08:25:27.738Z,1.10
2022-09-13T08:26:31.162Z,1.20
2022-09-13T08:27:32.851Z,1.25
2022-09-13T08:28:40.387Z,1.17
2022-09-13T08:29:42.143Z,1.23
2022-09-13T08:30:44.794Z,1.30
2022-09-13T08:31:46.659Z,1.40
2022-09-13T08:32:51.599Z,1.30
2022-09-13T08:33:53.897Z,1.13
2022-09-13T08:34:55.575Z,1.00
2022-09-13T08:35:58.607Z,1.45
2022-09-13T08:37:00.349Z,0.90
2022-09-13T08:38:02.415Z,1.00
2022-09-13T08:39:04.584Z,1.13
2022-09-13T08:40:06.982Z,0.98
2022-09-13T08:41:48.085Z,1.38
2022-09-13T08:43:08.233Z,1.08
2022-09-13T08:44:15.716Z,1.13
2022-09-13T08:45:17.763Z,1.13
2022-09-13T08:46:35.370Z,1.45
2022-09-13T08:47:59.924Z,1.20
2022-09-13T08:49:10.949Z,0.98
2022-09-13T08:50:19.671Z,1.00
2022-09-13T08:51:40.272Z,1.30
2022-09-13T08:52:53.656Z,1.20
2022-09-13T08:53:57.399Z,0.90
2022-09-13T08:55:25.289Z,1.23
2022-09-13T08:56:38.600Z,1.17
2022-09-13T08:58:06.103Z,1.30
2022-09-13T08:59:19.934Z,0.98
2022-09-13T09:00:31.626Z,1.02
2022-09-13T09:01:58.262Z,1.30
2022-09-13T09:03:24.929Z,1.00
2022-09-13T09:04:26.874Z,0.98
2022-09-13T09:05:31.433Z,1.30
2022-09-13T09:06:35.485Z,1.23
2022-09-13T09:07:42.748Z,1.10
2022-09-13T09:09:00.087Z,1.20
2022-09-13T09:10:07.924Z,0.98
2022-09-13T09:11:28.450Z,1.02
2022-09-13T09:12:47.470Z,1.15
2022-09-13T09:14:11.278Z,0.95
2022-09-13T09:15:21.938Z,1.33
2022-09-13T09:16:26.421Z,1.10
2022-09-13T09:17:35.266Z,1.10
2022-09-13T09:18:46.096Z,1.20
2022-09-13T09:20:00.826Z,1.20
2022-09-13T09:21:04.203Z,1.08
2022-09-13T09:22:13.735Z,1.25
2022-09-13T09:23:20.486Z,1.30
2022-09-13T09:24:25.537Z,1.10
2022-09-13T09:25:27.593Z,1.25
2022-09-13T09:26:30.866Z,1.15
2022-09-13T09:27:33.966Z,1.00
2022-09-13T09:28:35.642Z,1.20
2022-09-13T09:29:38.402Z,1.20
2022-09-13T09:31:04.496Z,1.40
2022-09-13T09:32:25.103Z,0.93
2022-09-13T09:33:51.446Z,1.20
2022-09-13T09:35:18.000Z,0.85
2022-09-13T09:36:51.159Z,1.92
2022-09-13T09:38:23.422Z,1.25
2022-09-13T09:39:32.656Z,0.90
2022-09-13T09:40:38.433Z,1.30
2022-09-13T09:41:40.490Z,1.10
2022-09-13T09:42:47.670Z,1.00
2022-09-13T09:44:26.673Z,1.30
2022-09-13T09:45:34.827Z,1.15
2022-09-13T09:46:40.639Z,1.13
2022-09-13T09:47:47.861Z,0.95
2022-09-13T09:48:54.668Z,1.20
2022-09-13T09:50:10.075Z,1.25
2022-09-13T09:51:15.197Z,1.10
2022-09-13T09:52:23.178Z,0.70
2022-09-13T09:53:31.607Z,1.00
2022-09-13T09:54:39.102Z,1.00
2022-09-13T09:55:53.473Z,1.17
2022-09-13T09:56:55.693Z,1.10
2022-09-13T09:58:11.455Z,1.10
2022-09-13T09:59:39.411Z,1.00
2022-09-13T10:00:56.055Z,0.95
2022-09-13T10:01:59.188Z,0.90
2022-09-13T10:03:05.491Z,0.90
2022-09-13T10:04:08.738Z,1.08
2022-09-13T10:05:13.008Z,1.00
2022-09-13T10:06:20.473Z,1.15
2022-09-13T10:07:31.051Z,0.90
2022-09-13T10:08:38.258Z,1.13
2022-09-13T10:09:40.125Z,1.00
2022-09-13T10:10:53.799Z,1.10
2022-09-13T10:11:57.727Z,1.15
2022-09-13T10:13:00.867Z,0.82
2022-09-13T10:14:03.580Z,1.10
2022-09-13T10:15:20.317Z,0.93
2022-09-13T10:16:26.727Z,1.00
2022-09-13T10:17:29.803Z,1.08
2022-09-13T10:18:45.126Z,1.08
2022-09-13T10:20:15.138Z,0.88
2022-09-13T10:21:19.658Z,1.17
2022-09-13T10:22:23.163Z,1.25
2022-09-13T10:23:24.900Z,1.02
2022-09-13T10:24:27.680Z,1.00
2022-09-13T10:25:29.635Z,0.80
2022-09-13T10:26:34.202Z,0.80
2022-09-13T10:27:42.900Z,0.85
2022-09-13T10:29:06.250Z,1.10
2022-09-13T10:30:23.729Z,1.15
2022-09-13T10:31:32.217Z,1.15
2022-09-13T10:32:34.174Z,0.68
2022-09-13T10:33:44.364Z,1.00
2022-09-13T10:34:48.830Z,0.98
2022-09-13T10:35:53.805Z,0.90
2022-09-13T10:37:06.015Z,0.82
2022-09-13T10:38:26.155Z,0.82
2022-09-13T10:39:30.405Z,0.70
2022-09-13T10:40:34.818Z,0.80
2022-09-13T10:41:42.460Z,0.80
2022-09-13T10:42:53.316Z,1.08
2022-09-13T10:43:59.478Z,1.08
2022-09-13T10:45:05.075Z,1.05
2022-09-13T10:46:13.697Z,1.00
2022-09-13T10:47:50.483Z,1.17
2022-09-13T10:48:57.963Z,1.05
2022-09-13T10:50:13.275Z,1.40
2022-09-13T10:51:23.715Z,1.27
2022-09-13T10:52:53.248Z,1.20
2022-09-13T10:54:20.310Z,1.50
2022-09-13T10:55:37.057Z,1.08
2022-09-13T10:56:39.034Z,1.40
2022-09-13T10:57:40.724Z,0.90
2022-09-13T10:58:42.480Z,1.05
2022-09-13T10:59:54.768Z,1.13
2022-09-13T11:01:15.090Z,1.02
2022-09-13T11:02:50.326Z,0.80
2022-09-13T11:03:59.781Z,1.20
2022-09-13T11:05:20.240Z,0.90
2022-09-13T11:06:42.647Z,0.80
2022-09-13T11:07:44.433Z,0.70
2022-09-13T11:09:03.852Z,1.00
2022-09-13T11:10:32.844Z,1.00
2022-09-13T11:11:49.679Z,0.90
2022-09-13T11:12:57.742Z,0.93
2022-09-13T11:14:29.639Z,1.25
2022-09-13T11:16:08.928Z,1.00
2022-09-13T11:17:30.955Z,0.82
2022-09-13T11:18:51.480Z,0.70
2022-09-13T11:20:01.519Z,0.60
2022-09-13T11:21:24.754Z,0.80
2022-09-13T11:23:10.691Z,0.70
2022-09-13T11:24:31.327Z,1.00
2022-09-13T11:25:51.150Z,0.70
2022-09-13T11:27:05.527Z,0.82
2022-09-13T11:28:21.683Z,0.80
2022-09-13T11:29:59.168Z,0.75
2022-09-13T11:31:07.013Z,0.85
2022-09-13T11:32:32.266Z,0.60
2022-09-13T11:33:58.971Z,0.85
2022-09-13T11:35:43.580Z,0.80
2022-09-13T11:37:00.488Z,0.70
2022-09-13T11:38:48.328Z,0.63
2022-09-13T11:40:14.219Z,1.27
2022-09-13T11:41:18.951Z,0.60
2022-09-13T11:42:49.984Z,0.90
2022-09-13T11:44:29.092Z,0.75
2022-09-13T11:45:58.290Z,0.63
2022-09-13T11:47:21.555Z,0.60
2022-09-13T11:49:02.930Z,0.90
2022-09-13T11:50:19.676Z,0.90
2022-09-13T11:51:34.670Z,0.50
2022-09-13T11:53:01.878Z,1.02
2022-09-13T11:54:34.509Z,0.70
2022-09-13T11:55:45.733Z,0.90
2022-09-13T11:56:52.377Z,0.60
2022-09-13T11:57:58.200Z,0.80
2022-09-13T11:59:05.882Z,1.08
2022-09-13T12:00:30.244Z,1.10
2022-09-13T12:01:40.319Z,0.88
2022-09-13T12:03:03.848Z,0.75
2022-09-13T12:04:17.815Z,0.77
2022-09-13T12:05:23.839Z,0.80
2022-09-13T12:06:31.576Z,0.80
2022-09-13T12:07:42.048Z,0.90
2022-09-13T12:08:49.535Z,0.90
2022-09-13T12:10:02.291Z,1.17
2022-09-13T12:11:19.567Z,0.95
2022-09-13T12:12:26.270Z,1.20
2022-09-13T12:13:36.278Z,1.10
2022-09-13T12:14:48.524Z,0.93
2022-09-13T12:15:55.416Z,0.98
2022-09-13T12:17:03.106Z,1.20
2022-09-13T12:18:13.627Z,0.90
2022-09-13T12:19:29.411Z,0.90
2022-09-13T12:20:42.159Z,1.05
2022-09-13T12:21:45.007Z,0.80
2022-09-13T12:22:48.027Z,1.27
2022-09-13T12:23:55.777Z,1.02
2022-09-13T12:25:03.531Z,0.98
2022-09-13T12:26:13.343Z,1.00
2022-09-13T12:27:32.292Z,1.08
2022-09-13T12:28:51.527Z,1.02
2022-09-13T12:30:05.069Z,1.00
2022-09-13T12:31:26.928Z,1.02
2022-09-13T12:32:29.366Z,1.00
2022-09-13T12:33:31.161Z,1.20
2022-09-13T12:34:46.575Z,0.90
2022-09-13T12:36:03.571Z,1.10
2022-09-13T12:37:20.159Z,1.08
2022-09-13T12:38:52.559Z,0.73
2022-09-13T12:40:08.894Z,0.93
2022-09-13T12:41:31.927Z,1.10
2022-09-13T12:42:45.633Z,0.88
2022-09-13T12:44:20.496Z,0.80
2022-09-13T12:45:54.797Z,0.82
2022-09-13T12:47:08.371Z,0.68
2022-09-13T12:48:29.890Z,0.80
2022-09-13T12:49:44.825Z,0.80
2022-09-13T12:51:07.936Z,0.90
2022-09-13T12:52:17.466Z,1.30
2022-09-13T12:53:57.178Z,0.90
2022-09-13T12:55:45.294Z,1.10
2022-09-13T12:57:18.579Z,0.90
2022-09-13T12:59:07.927Z,1.00
2022-09-13T13:00:29.189Z,0.95
2022-09-13T13:01:32.509Z,0.98
2022-09-13T13:02:38.528Z,0.93
2022-09-13T13:04:04.679Z,1.05
2022-09-13T13:05:21.992Z,1.00
2022-09-13T13:06:34.755Z,1.15
2022-09-13T13:07:38.262Z,1.20
2022-09-13T13:08:49.027Z,0.68
2022-09-13T13:09:56.374Z,1.10
2022-09-13T13:11:13.390Z,0.90
2022-09-13T13:12:36.730Z,1.23
2022-09-13T13:13:41.582Z,1.05
2022-09-13T13:14:46.777Z,1.20
2022-09-13T13:15:50.292Z,1.00
2022-09-13T13:16:52.215Z,1.00
2022-09-13T13:17:57.437Z,1.10
2022-09-13T13:19:01.126Z,1.02
2022-09-13T13:20:41.013Z,0.90
2022-09-13T13:21:42.835Z,1.20
2022-09-13T13:22:44.548Z,0.80
2022-09-13T13:23:46.354Z,1.10
2022-09-13T13:24:48.986Z,1.00
2022-09-13T13:26:10.617Z,1.08
2022-09-13T13:27:41.147Z,0.85
2022-09-13T13:28:44.746Z,0.90
2022-09-13T13:30:31.939Z,1.10
2022-09-13T13:31:35.526Z,0.63
2022-09-13T13:32:37.631Z,0.80
2022-09-13T13:34:22.558Z,0.85
2022-09-13T13:35:32.568Z,1.00
2022-09-13T13:36:40.160Z,0.90
2022-09-13T13:37:42.386Z,0.90
2022-09-13T13:38:48.477Z,1.00
2022-09-13T13:40:36.683Z,0.70
2022-09-13T13:41:43.824Z,0.73
2022-09-13T13:42:45.745Z,0.77
2022-09-13T13:43:47.467Z,0.95
2022-09-13T13:44:54.969Z,0.70
2022-09-13T13:46:17.830Z,0.80
2022-09-13T13:47:19.498Z,1.00
2022-09-13T13:48:39.093Z,0.80
2022-09-13T13:49:40.874Z,0.77
2022-09-13T13:51:19.106Z,1.10
2022-09-13T13:52:23.750Z,0.90
2022-09-13T13:53:36.726Z,0.77
2022-09-13T13:54:50.562Z,0.63
2022-09-13T13:56:15.187Z,0.95
2022-09-13T13:57:32.236Z,0.70
2022-09-13T13:58:50.976Z,0.75
2022-09-13T14:00:19.534Z,0.65
2022-09-13T14:01:26.354Z,0.85
2022-09-13T14:02:41.352Z,0.80
2022-09-13T14:04:04.922Z,0.98
2022-09-13T14:05:41.701Z,0.80
2022-09-13T14:07:03.113Z,0.98
2022-09-13T14:19:01.358Z,1.30
2022-09-13T14:20:11.803Z,1.10
2022-09-13T14:21:28.530Z,1.50
2022-09-13T14:22:30.967Z,0.95
2022-09-13T14:23:33.536Z,1.00
2022-09-13T14:24:42.314Z,0.93
2022-09-13T14:25:44.569Z,1.05
2022-09-13T14:26:54.562Z,1.27
2022-09-13T14:27:59.353Z,0.90
2022-09-13T14:29:01.214Z,0.90
2022-09-13T14:30:17.270Z,1.25
2022-09-13T14:31:20.500Z,0.80
2022-09-13T14:32:25.579Z,1.00
2022-09-13T14:33:34.881Z,0.93
2022-09-13T14:34:38.892Z,1.20
2022-09-13T14:35:41.350Z,1.02
2022-09-13T14:36:53.769Z,1.15
2022-09-13T14:38:09.542Z,1.10
2022-09-13T14:39:11.231Z,1.15
2022-09-13T14:40:22.430Z,0.90
2022-09-13T14:41:44.502Z,1.20
2022-09-13T14:42:48.066Z,1.10
2022-09-13T14:43:50.412Z,1.20
2022-09-13T14:44:52.613Z,1.00
2022-09-13T14:46:04.030Z,1.13
2022-09-13T14:47:12.982Z,0.85
2022-09-13T14:48:36.307Z,1.20
2022-09-13T14:49:49.193Z,1.00
2022-09-13T14:51:26.134Z,1.15
2022-09-13T14:52:35.319Z,1.27
2022-09-13T14:53:37.504Z,1.00
2022-09-13T14:54:48.550Z,0.90
2022-09-13T14:55:56.311Z,1.40
2022-09-13T14:57:01.881Z,1.17
2022-09-13T14:58:13.515Z,1.10
2022-09-13T14:59:48.091Z,1.23
2022-09-13T15:00:55.405Z,1.10
2022-09-13T15:02:02.693Z,0.70
2022-09-13T15:03:14.214Z,1.08
2022-09-13T15:04:18.484Z,1.10
2022-09-13T15:05:24.829Z,1.10
2022-09-13T15:06:33.082Z,1.30
2022-09-13T15:07:36.312Z,0.90
2022-09-13T15:08:45.876Z,1.10
2022-09-13T15:09:47.719Z,1.08
2022-09-13T15:10:49.538Z,1.08
2022-09-13T15:11:54.040Z,1.00
2022-09-13T15:13:05.155Z,1.10
2022-09-13T15:14:12.700Z,0.80
2022-09-13T15:15:35.336Z,1.08
2022-09-13T15:16:48.876Z,1.00
2022-09-13T15:18:02.274Z,0.85
2022-09-13T15:19:39.419Z,1.10
2022-09-13T15:20:54.711Z,0.90
2022-09-13T15:22:05.461Z,0.77
2022-09-13T15:23:18.364Z,0.80
2022-09-13T15:24:32.021Z,0.98
2022-09-13T15:25:33.788Z,0.80
2022-09-13T15:26:35.540Z,0.93
2022-09-13T15:27:42.512Z,0.68
2022-09-13T15:28:44.167Z,0.82
2022-09-13T15:29:51.124Z,0.77
2022-09-13T15:30:54.687Z,0.70
2022-09-13T15:31:59.670Z,0.90
2022-09-13T15:33:29.369Z,0.80
2022-09-13T15:34:31.369Z,0.80
2022-09-13T15:35:39.755Z,0.63